Terminal Aerodrome Forecast
Issued by NWS

Home | Current Version | Previous Version | Text Only | Print | Product List | Glossary On
Versions: 1 2 3 4 5 6 7 8 9 10 11 12 13 14 15 16 17
000
FTUS46 KLOX 261731
TAFBUR
TAF
KBUR 261731Z 2618/2718 15004KT P6SM FEW035
     FM262000 17010KT P6SM SKC
     FM270400 VRB03KT P6SM SKC
     FM271000 VRB03KT P6SM BKN012=

USA.gov is the U.S. government's official web portal to all federal, state and local government web resources and services.